Terminal Aerodrome Forecast
Issued by NWS Shreveport, LA

Home | Current Version | Previous Version | Text Only | Print | Product List | Glossary On
Versions: 1 2 3 4 5 6 7 8 9 10 11 12 13 14 15 16 17 18 19 20 21 22 23 24
429
FTUS44 KSHV 291431 AAB
TAFSHV
TAF AMD
KSHV 291431Z 2915/3012 26007KT P6SM SCT035 BKN150 BKN250
     FM291800 27005KT P6SM BKN045 OVC150
     FM292100 05006KT P6SM SCT050 BKN250=

USA.gov is the U.S. government's official web portal to all federal, state and local government web resources and services.